createdAt,value
2023-04-07T00:01:48.105Z,20.70
2023-04-07T00:04:14.871Z,32.42
2023-04-07T00:06:43.364Z,21.73
2023-04-07T00:09:11.158Z,20.43
2023-04-07T00:11:38.790Z,19.65
2023-04-07T00:14:05.603Z,20.48
2023-04-07T00:16:32.169Z,20.70
2023-04-07T00:18:58.770Z,21.08
2023-04-07T00:21:27.071Z,20.67
2023-04-07T00:23:53.859Z,21.33
2023-04-07T00:26:21.034Z,19.90
2023-04-07T00:28:47.676Z,21.42
2023-04-07T00:31:14.468Z,21.10
2023-04-07T00:33:41.025Z,21.80
2023-04-07T00:36:07.615Z,21.90
2023-04-07T00:38:34.176Z,22.85
2023-04-07T00:41:01.254Z,21.77
2023-04-07T00:43:27.833Z,21.17
2023-04-07T00:45:54.768Z,22.30
2023-04-07T00:48:21.786Z,21.45
2023-04-07T00:50:48.427Z,21.83
2023-04-07T00:53:15.609Z,21.25
2023-04-07T00:55:42.254Z,23.70
2023-04-07T00:58:09.387Z,23.25
2023-04-07T01:00:42.490Z,21.30
2023-04-07T01:03:13.927Z,21.23
2023-04-07T01:05:55.558Z,21.95
2023-04-07T01:08:30.673Z,21.90
2023-04-07T01:11:21.301Z,21.77
2023-04-07T01:13:52.221Z,21.90
2023-04-07T01:16:35.825Z,22.80
2023-04-07T01:19:28.675Z,23.02
2023-04-07T01:21:58.255Z,21.65
2023-04-07T01:24:36.785Z,22.88
2023-04-07T01:27:25.250Z,23.45
2023-04-07T01:29:53.766Z,22.55
2023-04-07T01:32:20.802Z,23.15
2023-04-07T01:34:49.738Z,21.67
2023-04-07T01:37:17.468Z,21.63
2023-04-07T01:39:44.476Z,20.92
2023-04-07T01:42:12.317Z,27.45
2023-04-07T01:44:40.765Z,21.73
2023-04-07T01:47:07.695Z,20.67
2023-04-07T01:49:36.480Z,20.40
2023-04-07T01:52:04.467Z,19.70
2023-04-07T01:54:31.481Z,21.02
2023-04-07T01:56:58.027Z,19.85
2023-04-07T01:59:25.261Z,18.90
2023-04-07T02:01:51.919Z,19.67
2023-04-07T02:04:29.182Z,19.83
2023-04-07T02:07:00.905Z,20.33
2023-04-07T02:09:31.544Z,19.80
2023-04-07T02:12:01.855Z,19.25
2023-04-07T02:14:29.370Z,19.20
2023-04-07T02:16:56.754Z,20.05
2023-04-07T02:19:23.559Z,21.25
2023-04-07T02:21:52.243Z,19.05
2023-04-07T02:24:21.914Z,15.38
2023-04-07T02:26:48.925Z,19.58
2023-04-07T02:29:15.555Z,19.75
2023-04-07T02:31:42.219Z,19.40
2023-04-07T02:34:08.802Z,19.10
2023-04-07T02:36:35.417Z,18.98
2023-04-07T02:39:02.061Z,19.17
2023-04-07T02:41:28.635Z,18.67
2023-04-07T02:43:55.408Z,19.35
2023-04-07T02:46:22.119Z,19.30
2023-04-07T02:48:48.606Z,18.15
2023-04-07T02:51:15.403Z,18.33
2023-04-07T02:53:41.906Z,19.52
2023-04-07T02:56:08.601Z,18.77
2023-04-07T02:58:35.313Z,18.10
2023-04-07T03:01:01.864Z,18.48
2023-04-07T03:03:28.539Z,19.48
2023-04-07T03:05:55.161Z,19.40
2023-04-07T03:08:21.694Z,18.63
2023-04-07T03:10:48.194Z,18.58
2023-04-07T03:13:16.490Z,19.55
2023-04-07T03:15:43.962Z,18.07
2023-04-07T03:18:11.450Z,18.55
2023-04-07T03:20:38.315Z,18.90
2023-04-07T03:23:04.819Z,19.17
2023-04-07T03:25:31.342Z,18.48
2023-04-07T03:27:57.941Z,18.77
2023-04-07T03:30:24.892Z,18.30
2023-04-07T03:32:51.546Z,19.35
2023-04-07T03:35:18.275Z,18.95
2023-04-07T03:37:44.913Z,19.02
2023-04-07T03:40:11.874Z,18.30
2023-04-07T03:42:38.431Z,18.40
2023-04-07T03:45:05.467Z,19.80
2023-04-07T03:47:32.004Z,18.55
2023-04-07T03:49:58.603Z,18.88
2023-04-07T03:52:25.210Z,19.95
2023-04-07T03:54:51.805Z,19.92
2023-04-07T03:57:18.344Z,20.17
2023-04-07T03:59:45.075Z,18.40
2023-04-07T04:02:11.932Z,19.25
2023-04-07T04:04:38.605Z,18.95
2023-04-07T04:07:05.247Z,19.35
2023-04-07T04:09:31.934Z,20.55
2023-04-07T04:11:58.482Z,18.73
2023-04-07T04:14:25.224Z,20.52
2023-04-07T04:16:51.836Z,21.50
2023-04-07T04:19:18.494Z,20.50
2023-04-07T04:21:45.054Z,21.67
2023-04-07T04:24:11.776Z,20.15
2023-04-07T04:26:38.322Z,21.10
2023-04-07T04:29:04.887Z,20.70
2023-04-07T04:31:31.541Z,21.30
2023-04-07T04:33:58.091Z,21.60
2023-04-07T04:36:24.740Z,22.00
2023-04-07T04:38:51.641Z,21.23
2023-04-07T04:41:18.181Z,20.90
2023-04-07T04:43:45.316Z,22.33
2023-04-07T04:46:12.005Z,21.90
2023-04-07T04:48:38.637Z,21.30
2023-04-07T04:51:05.616Z,21.13
2023-04-07T04:53:32.444Z,21.45
2023-04-07T04:55:59.106Z,22.08
2023-04-07T04:58:26.177Z,21.67
2023-04-07T05:00:57.995Z,22.13
2023-04-07T05:03:27.877Z,22.52
2023-04-07T05:05:54.570Z,22.33
2023-04-07T05:08:21.295Z,22.80
2023-04-07T05:10:47.842Z,23.52
2023-04-07T05:13:14.590Z,22.58
2023-04-07T05:15:41.935Z,23.05
2023-04-07T05:18:08.500Z,22.05
2023-04-07T05:20:35.176Z,22.70
2023-04-07T05:23:01.836Z,22.88
2023-04-07T05:25:28.337Z,21.88
2023-04-07T05:27:54.920Z,21.38
2023-04-07T05:30:21.576Z,21.05
2023-04-07T05:32:48.139Z,21.50
2023-04-07T05:35:15.005Z,21.85
2023-04-07T05:37:41.783Z,20.83
2023-04-07T05:40:08.855Z,21.20
2023-04-07T05:42:35.353Z,21.13
2023-04-07T05:45:02.003Z,22.60
2023-04-07T05:47:28.579Z,19.83
2023-04-07T05:49:55.220Z,20.48
2023-04-07T05:52:21.765Z,20.15
2023-04-07T05:54:48.367Z,20.85
2023-04-07T05:57:15.054Z,20.02
2023-04-07T05:59:41.787Z,19.98
2023-04-07T06:02:08.448Z,19.92
2023-04-07T06:04:35.513Z,18.88
2023-04-07T06:07:03.061Z,19.23
2023-04-07T06:09:29.609Z,18.75
2023-04-07T06:11:56.663Z,19.92
2023-04-07T06:14:23.623Z,17.70
2023-04-07T06:16:50.469Z,17.92
2023-04-07T06:19:17.054Z,18.08
2023-04-07T06:21:43.595Z,17.95
2023-04-07T06:24:10.108Z,18.75
2023-04-07T06:26:37.003Z,18.55
2023-04-07T06:29:03.591Z,18.63
2023-04-07T06:31:30.254Z,18.27
2023-04-07T06:33:56.877Z,19.33
2023-04-07T06:36:23.626Z,17.80
2023-04-07T06:38:50.994Z,17.98
2023-04-07T06:41:17.549Z,18.70
2023-04-07T06:43:46.805Z,17.65
2023-04-07T06:46:13.662Z,18.67
2023-04-07T06:48:40.411Z,18.20
2023-04-07T06:51:07.002Z,17.90
2023-04-07T06:53:33.545Z,18.17
2023-04-07T06:56:07.411Z,18.50
2023-04-07T06:58:35.230Z,17.85
2023-04-07T07:01:02.502Z,18.30
2023-04-07T07:03:29.493Z,18.13
2023-04-07T07:05:56.540Z,19.35
2023-04-07T07:08:23.599Z,18.42
2023-04-07T07:10:50.134Z,18.50
2023-04-07T07:13:16.734Z,17.45
2023-04-07T07:15:43.366Z,18.77
2023-04-07T07:18:10.037Z,18.65
2023-04-07T07:20:36.540Z,18.23
2023-04-07T07:23:03.180Z,18.83
2023-04-07T07:25:29.846Z,21.38
2023-04-07T07:27:56.434Z,19.75
2023-04-07T07:30:24.126Z,19.38
2023-04-07T07:32:51.271Z,36.92
2023-04-07T07:35:17.839Z,31.58
2023-04-07T07:37:44.643Z,19.17
2023-04-07T07:40:11.417Z,19.27
2023-04-07T07:42:38.683Z,19.75
2023-04-07T07:45:06.059Z,17.65
2023-04-07T07:47:33.208Z,18.73
2023-04-07T07:49:59.794Z,19.50
2023-04-07T07:52:26.348Z,18.92
2023-04-07T07:54:52.912Z,18.35
2023-04-07T07:57:19.482Z,18.50
2023-04-07T07:59:46.556Z,19.25
2023-04-07T08:02:13.564Z,18.08
2023-04-07T08:04:40.258Z,16.55
2023-04-07T08:07:06.867Z,17.50
2023-04-07T08:09:33.432Z,18.52
2023-04-07T08:12:00.079Z,18.65
2023-04-07T08:14:26.725Z,17.73
2023-04-07T08:16:53.301Z,17.92
2023-04-07T08:19:19.882Z,18.65
2023-04-07T08:21:46.459Z,18.85
2023-04-07T08:24:12.992Z,17.95
2023-04-07T08:26:39.583Z,18.92
2023-04-07T08:29:06.125Z,18.00
2023-04-07T08:31:32.798Z,17.50
2023-04-07T08:33:59.435Z,18.02
2023-04-07T08:36:27.824Z,18.55
2023-04-07T08:38:54.545Z,19.03
2023-04-07T08:41:42.331Z,17.30
2023-04-07T08:44:10.398Z,17.63
2023-04-07T08:46:40.216Z,17.92
2023-04-07T08:49:14.160Z,18.30
2023-04-07T08:51:51.071Z,17.00
2023-04-07T08:54:22.512Z,17.58
2023-04-07T08:56:49.108Z,18.38
2023-04-07T08:59:18.529Z,18.65
2023-04-07T09:01:46.485Z,18.08
2023-04-07T09:04:13.849Z,18.65
2023-04-07T09:06:40.412Z,19.17
2023-04-07T09:09:06.936Z,19.05
2023-04-07T09:11:39.901Z,19.17
2023-04-07T09:14:07.381Z,19.85
2023-04-07T09:16:34.000Z,21.25
2023-04-07T09:19:00.616Z,19.58
2023-04-07T09:21:27.262Z,19.02
2023-04-07T09:23:53.996Z,19.08
2023-04-07T09:26:28.083Z,20.50
2023-04-07T09:28:57.306Z,20.88
2023-04-07T09:31:26.479Z,19.38
2023-04-07T09:33:53.373Z,21.60
2023-04-07T09:36:20.367Z,21.17
2023-04-07T09:38:46.958Z,18.50
2023-04-07T09:41:15.944Z,19.40
2023-04-07T09:43:45.557Z,20.17
2023-04-07T09:46:13.591Z,18.42
2023-04-07T09:48:41.040Z,18.55
2023-04-07T09:51:17.851Z,19.55
2023-04-07T09:53:49.862Z,19.73
2023-04-07T09:56:18.114Z,20.17
2023-04-07T09:58:46.993Z,18.77
2023-04-07T10:01:16.860Z,18.83
2023-04-07T10:03:44.518Z,18.38
2023-04-07T10:06:11.854Z,19.73
2023-04-07T10:08:41.444Z,17.17
2023-04-07T10:11:08.249Z,17.48
2023-04-07T10:13:37.190Z,16.95
2023-04-07T10:16:06.483Z,18.20
2023-04-07T10:21:03.432Z,19.23
2023-04-07T10:24:03.643Z,17.73
2023-04-07T10:26:34.626Z,18.63
2023-04-07T10:29:08.758Z,19.23
2023-04-07T10:31:36.986Z,19.73
2023-04-07T10:34:03.592Z,22.27
2023-04-07T10:36:30.622Z,18.80
2023-04-07T10:39:09.046Z,20.48
2023-04-07T10:41:36.942Z,19.33
2023-04-07T10:44:04.789Z,19.67
2023-04-07T10:47:05.317Z,19.35
2023-04-07T10:49:34.471Z,16.42
2023-04-07T10:52:13.337Z,17.33
2023-04-07T10:54:40.669Z,15.88
2023-04-07T10:57:12.958Z,15.55
2023-04-07T10:59:46.762Z,16.05
2023-04-07T11:02:17.441Z,16.55
2023-04-07T11:04:46.729Z,14.38
2023-04-07T11:09:41.329Z,15.02
2023-04-07T11:12:08.529Z,12.77
2023-04-07T11:14:37.542Z,13.00
2023-04-07T11:17:04.566Z,13.40
2023-04-07T11:19:33.986Z,12.68
2023-04-07T11:24:56.144Z,12.95
2023-04-07T11:27:22.923Z,11.63
2023-04-07T11:29:50.127Z,12.75
2023-04-07T11:32:24.986Z,12.50
2023-04-07T11:34:52.294Z,12.52
2023-04-07T11:37:28.759Z,11.98
2023-04-07T11:39:56.824Z,13.55
2023-04-07T11:42:40.101Z,12.50
2023-04-07T11:45:17.020Z,12.30
2023-04-07T11:47:43.618Z,13.98
2023-04-07T11:50:11.708Z,13.75
2023-04-07T11:52:48.514Z,12.90
2023-04-07T11:55:22.843Z,13.77
2023-04-07T11:57:51.631Z,12.43
2023-04-07T12:00:19.153Z,12.48
2023-04-07T12:02:46.328Z,10.95
2023-04-07T12:05:13.308Z,10.70
2023-04-07T12:07:41.819Z,10.95
2023-04-07T12:10:22.072Z,10.93
2023-04-07T12:12:49.140Z,10.43
2023-04-07T12:15:16.465Z,10.20
2023-04-07T12:17:47.933Z,11.38
2023-04-07T12:20:15.878Z,10.90
2023-04-07T12:22:42.623Z,10.15
2023-04-07T12:25:09.339Z,10.32
2023-04-07T12:27:42.852Z,9.75
2023-04-07T12:30:10.615Z,10.10
2023-04-07T12:32:37.747Z,8.77
2023-04-07T12:35:05.360Z,8.75
2023-04-07T12:37:33.114Z,8.75
2023-04-07T12:40:00.253Z,8.07
2023-04-07T12:42:27.116Z,8.80
2023-04-07T12:44:53.834Z,8.60
2023-04-07T12:47:20.693Z,9.68
2023-04-07T12:49:49.584Z,9.52
2023-04-07T12:54:44.349Z,7.82
2023-04-07T12:57:11.405Z,7.97
2023-04-07T12:59:38.038Z,6.03
2023-04-07T13:02:04.824Z,6.18
2023-04-07T13:04:31.747Z,6.45
2023-04-07T13:06:59.526Z,5.85
2023-04-07T13:09:26.208Z,7.32
2023-04-07T13:11:52.772Z,5.57
2023-04-07T13:14:19.413Z,5.78
2023-04-07T13:16:46.320Z,8.18
2023-04-07T13:19:13.008Z,10.50
2023-04-07T13:24:09.028Z,8.07
2023-04-07T13:26:35.501Z,4.93
2023-04-07T13:29:02.039Z,4.75
2023-04-07T13:31:28.598Z,5.13
2023-04-07T13:33:55.092Z,4.68
2023-04-07T13:36:23.313Z,3.83
2023-04-07T13:38:50.100Z,3.08
2023-04-07T13:41:16.725Z,3.45
2023-04-07T13:43:43.296Z,3.72
2023-04-07T13:48:46.601Z,3.63
2023-04-07T13:53:39.593Z,3.90
2023-04-07T13:56:08.351Z,3.70
2023-04-07T13:58:35.434Z,3.70
2023-04-07T14:01:02.842Z,4.20
2023-04-07T14:03:29.803Z,4.25
2023-04-07T14:06:01.117Z,4.60
2023-04-07T14:08:28.107Z,4.25
2023-04-07T14:10:54.743Z,4.70
2023-04-07T14:13:21.416Z,3.85
2023-04-07T14:15:48.663Z,4.00
2023-04-07T14:18:15.415Z,3.50
2023-04-07T14:20:42.100Z,3.25
2023-04-07T14:23:08.657Z,3.13
2023-04-07T14:25:35.446Z,3.15
2023-04-07T14:28:02.306Z,2.88
2023-04-07T14:30:30.665Z,4.03
2023-04-07T14:32:57.256Z,2.93
2023-04-07T14:35:23.887Z,2.40
2023-04-07T14:37:52.352Z,2.70
2023-04-07T14:40:21.223Z,2.70
2023-04-07T14:42:48.821Z,2.50
2023-04-07T14:45:17.707Z,2.67
2023-04-07T14:47:44.423Z,2.92
2023-04-07T14:50:11.406Z,2.92
2023-04-07T14:52:38.027Z,2.58
2023-04-07T14:55:04.878Z,2.95
2023-04-07T14:57:31.455Z,2.42
2023-04-07T14:59:57.988Z,2.03
2023-04-07T15:02:24.832Z,1.83
2023-04-07T15:04:51.548Z,2.05
2023-04-07T15:07:18.159Z,1.50
2023-04-07T15:09:46.458Z,1.55
2023-04-07T15:12:12.970Z,1.97
2023-04-07T15:14:39.833Z,1.20
2023-04-07T15:17:06.345Z,1.70
2023-04-07T15:19:32.839Z,1.27
2023-04-07T15:21:59.392Z,1.60
2023-04-07T15:24:26.257Z,1.30
2023-04-07T15:26:52.825Z,1.35
2023-04-07T15:29:19.412Z,1.60
2023-04-07T15:31:45.995Z,1.10
2023-04-07T15:34:12.843Z,1.10
2023-04-07T15:36:39.586Z,1.20
2023-04-07T15:39:06.964Z,0.98
2023-04-07T15:41:34.025Z,0.90
2023-04-07T15:44:00.656Z,0.90
2023-04-07T15:46:27.435Z,1.00
2023-04-07T15:48:54.029Z,0.85
2023-04-07T15:51:20.736Z,0.80
2023-04-07T15:53:47.532Z,0.90
2023-04-07T15:56:14.361Z,0.80
2023-04-07T15:58:40.994Z,0.90
2023-04-07T16:01:08.197Z,0.77
2023-04-07T16:03:34.954Z,1.00
2023-04-07T16:06:01.618Z,1.20
2023-04-07T16:08:28.149Z,1.25
2023-04-07T16:10:54.685Z,1.35
2023-04-07T16:13:21.272Z,1.17
2023-04-07T16:15:47.809Z,1.42
2023-04-07T16:18:14.386Z,1.52
2023-04-07T16:20:41.026Z,1.65
2023-04-07T16:23:07.803Z,1.83
2023-04-07T16:25:35.706Z,2.50
2023-04-07T16:28:02.300Z,1.75
2023-04-07T16:30:28.899Z,2.60
2023-04-07T16:32:55.494Z,2.30
2023-04-07T16:35:22.136Z,1.90
2023-04-07T16:37:49.996Z,1.98
2023-04-07T16:40:16.681Z,2.03
2023-04-07T16:42:43.237Z,2.00
2023-04-07T16:45:10.292Z,2.15
2023-04-07T16:47:37.816Z,2.13
2023-04-07T16:50:05.248Z,2.00
2023-04-07T16:52:31.866Z,2.03
2023-04-07T16:54:59.236Z,2.22
2023-04-07T16:57:25.869Z,2.20
2023-04-07T16:59:52.703Z,2.17
2023-04-07T17:02:19.390Z,1.92
2023-04-07T17:04:46.097Z,1.77
2023-04-07T17:07:12.713Z,1.88
2023-04-07T17:09:39.607Z,2.28
2023-04-07T17:12:06.698Z,1.90
2023-04-07T17:14:33.581Z,1.60
2023-04-07T17:17:00.317Z,2.10
2023-04-07T17:19:27.240Z,2.05
2023-04-07T17:21:53.852Z,2.03
2023-04-07T17:24:20.428Z,1.90
2023-04-07T17:26:47.581Z,2.60
2023-04-07T17:29:15.620Z,2.35
2023-04-07T17:31:42.353Z,2.35
2023-04-07T17:34:10.440Z,2.78
2023-04-07T17:36:37.611Z,2.95
2023-04-07T17:39:04.794Z,2.35
2023-04-07T17:41:34.680Z,2.78
2023-04-07T17:44:01.911Z,2.50
2023-04-07T17:46:28.605Z,2.22
2023-04-07T17:48:57.489Z,2.67
2023-04-07T17:51:25.137Z,2.40
2023-04-07T17:53:53.415Z,2.78
2023-04-07T17:56:20.782Z,2.47
2023-04-07T17:58:47.649Z,2.67
2023-04-07T18:01:14.837Z,3.60
2023-04-07T18:03:41.700Z,7.28
2023-04-07T18:06:08.573Z,3.80
2023-04-07T18:08:35.364Z,2.72
2023-04-07T18:11:01.860Z,3.00
2023-04-07T18:13:28.464Z,2.30
2023-04-07T18:15:55.137Z,2.70
2023-04-07T18:18:21.820Z,2.60
2023-04-07T18:20:49.738Z,2.85
2023-04-07T18:23:16.317Z,2.40
2023-04-07T18:25:42.900Z,3.00
2023-04-07T18:28:09.852Z,3.20
2023-04-07T18:30:37.312Z,3.00
2023-04-07T18:33:04.008Z,2.70
2023-04-07T18:35:30.663Z,2.63
2023-04-07T18:37:58.971Z,2.80
2023-04-07T18:40:25.715Z,2.58
2023-04-07T18:42:52.763Z,2.80
2023-04-07T18:45:19.404Z,2.92
2023-04-07T18:47:46.014Z,2.70
2023-04-07T18:50:12.601Z,2.80
2023-04-07T18:52:39.379Z,2.80
2023-04-07T18:55:06.880Z,3.30
2023-04-07T18:57:33.653Z,3.70
2023-04-07T19:00:00.217Z,3.60
2023-04-07T19:02:27.205Z,3.30
2023-04-07T19:04:53.978Z,3.28
2023-04-07T19:07:20.521Z,2.85
2023-04-07T19:09:51.191Z,3.03
2023-04-07T19:12:17.698Z,3.33
2023-04-07T19:14:44.382Z,2.75
2023-04-07T19:17:11.720Z,2.17
2023-04-07T19:19:38.272Z,2.70
2023-04-07T19:22:04.875Z,2.83
2023-04-07T19:24:31.489Z,3.15
2023-04-07T19:26:58.314Z,3.20
2023-04-07T19:29:24.913Z,3.20
2023-04-07T19:31:52.886Z,3.67
2023-04-07T19:34:19.501Z,3.67
2023-04-07T19:36:46.252Z,4.03
2023-04-07T19:39:12.847Z,4.30
2023-04-07T19:41:39.871Z,4.13
2023-04-07T19:44:06.397Z,4.28
2023-04-07T19:46:33.749Z,4.10
2023-04-07T19:49:00.330Z,3.90
2023-04-07T19:51:27.571Z,3.92
2023-04-07T19:53:54.144Z,3.47
2023-04-07T19:56:20.715Z,3.83
2023-04-07T19:58:47.465Z,4.72
2023-04-07T20:01:18.109Z,4.22
2023-04-07T20:03:45.187Z,4.20
2023-04-07T20:06:14.398Z,4.30
2023-04-07T20:08:41.750Z,4.45
2023-04-07T20:11:11.589Z,3.55
2023-04-07T20:13:39.132Z,4.32
2023-04-07T20:16:05.751Z,3.95
2023-04-07T20:18:32.759Z,4.00
2023-04-07T20:21:03.608Z,4.07
2023-04-07T20:23:30.386Z,3.90
2023-04-07T20:25:56.978Z,3.72
2023-04-07T20:28:24.246Z,3.50
2023-04-07T20:30:51.458Z,3.78
2023-04-07T20:33:18.287Z,4.28
2023-04-07T20:35:44.910Z,4.60
2023-04-07T20:38:11.568Z,5.22
2023-04-07T20:40:38.257Z,5.45
2023-04-07T20:43:05.441Z,5.20
2023-04-07T20:45:33.252Z,5.95
2023-04-07T20:48:00.009Z,5.20
2023-04-07T20:50:26.862Z,5.57
2023-04-07T20:52:53.768Z,5.50
2023-04-07T20:55:20.959Z,5.20
2023-04-07T20:57:48.337Z,5.07
2023-04-07T21:00:16.355Z,5.38
2023-04-07T21:02:44.441Z,4.95
2023-04-07T21:05:11.215Z,5.30
2023-04-07T21:07:37.805Z,5.00
2023-04-07T21:10:05.044Z,5.20
2023-04-07T21:12:31.869Z,5.20
2023-04-07T21:14:58.464Z,5.85
2023-04-07T21:17:25.239Z,6.32
2023-04-07T21:19:52.209Z,23.40
2023-04-07T21:22:18.749Z,12.00
2023-04-07T21:24:45.268Z,9.70
2023-04-07T21:27:12.136Z,7.78
2023-04-07T21:29:40.957Z,6.88
2023-04-07T21:32:08.022Z,5.75
2023-04-07T21:34:34.586Z,5.90
2023-04-07T21:37:01.298Z,5.20
2023-04-07T21:39:27.873Z,5.40
2023-04-07T21:41:54.418Z,4.88
2023-04-07T21:44:21.366Z,5.05
2023-04-07T21:46:48.348Z,4.97
2023-04-07T21:49:17.748Z,4.82
2023-04-07T21:54:10.823Z,4.45
2023-04-07T21:56:37.369Z,4.85
2023-04-07T21:59:04.149Z,4.85
2023-04-07T22:01:30.858Z,5.45
2023-04-07T22:03:57.709Z,5.55
2023-04-07T22:06:24.400Z,5.20
2023-04-07T22:09:00.599Z,5.18
2023-04-07T22:11:28.011Z,5.63
2023-04-07T22:13:54.668Z,6.35
2023-04-07T22:16:21.442Z,5.45
2023-04-07T22:18:48.495Z,5.47
2023-04-07T22:21:15.383Z,5.22
2023-04-07T22:23:41.982Z,5.15
2023-04-07T22:26:08.644Z,5.22
2023-04-07T22:28:35.184Z,4.82
2023-04-07T22:31:02.296Z,4.88
2023-04-07T22:33:29.056Z,4.68
2023-04-07T22:35:55.639Z,4.47
2023-04-07T22:38:24.312Z,5.07
2023-04-07T22:40:50.927Z,4.55
2023-04-07T22:43:17.595Z,4.40
2023-04-07T22:45:44.150Z,4.32
2023-04-07T22:48:10.829Z,4.40
2023-04-07T22:50:37.519Z,16.13
2023-04-07T22:53:04.217Z,7.88
2023-04-07T22:55:30.751Z,28.80
2023-04-07T22:57:57.319Z,10.40
2023-04-07T23:00:23.894Z,5.28
2023-04-07T23:02:50.897Z,4.30
2023-04-07T23:05:17.599Z,3.92
2023-04-07T23:07:45.306Z,4.10
2023-04-07T23:10:12.089Z,3.78
2023-04-07T23:12:38.929Z,4.03
2023-04-07T23:15:06.274Z,4.22
2023-04-07T23:17:33.255Z,4.57
2023-04-07T23:19:59.798Z,4.03
2023-04-07T23:22:26.916Z,3.97
2023-04-07T23:24:53.466Z,4.00
2023-04-07T23:27:20.243Z,3.95
2023-04-07T23:29:46.797Z,4.20
2023-04-07T23:32:13.393Z,4.22
2023-04-07T23:34:40.769Z,3.75
2023-04-07T23:37:07.497Z,3.70
2023-04-07T23:39:34.339Z,3.47
2023-04-07T23:42:01.988Z,3.50
2023-04-07T23:44:28.529Z,3.13
2023-04-07T23:46:55.277Z,2.92
2023-04-07T23:49:22.140Z,3.10
2023-04-07T23:51:48.747Z,2.65
2023-04-07T23:54:15.327Z,2.50
2023-04-07T23:56:42.234Z,2.47
2023-04-07T23:59:08.768Z,2.70
